Time;durP1;ratioP1;P1;durP2;ratioP2;P2;SDS_P1;SDS_P2;PMS_P1;PMS_P2;Temp;Humidity;BMP_temperature;BMP_pressure;BME280_temperature;BME280_humidity;BME280_pressure;Samples;Min_cycle;Max_cycle;Signal;HPM_P1;HPM_P2
2024/01/05 06:01:46;;;;;;;4.10;2.40;;;;;;;;;;6037095;23;20848;-76
2024/01/05 06:04:13;;;;;;;2.93;1.97;;;;;;;;;;5014387;28;20418;-78
2024/01/05 06:06:39;;;;;;;9.53;2.20;;;;;;;;;;5004852;28;20407;-78
2024/01/05 06:09:05;;;;;;;4.83;1.40;;;;;;;;;;4999756;28;20415;-78
2024/01/05 06:11:32;;;;;;;1.70;1.50;;;;;;;;;;4993288;28;20463;-76
2024/01/05 06:13:58;;;;;;;3.70;1.60;;;;;;;;;;5031941;23;20403;-74
2024/01/05 06:16:24;;;;;;;2.60;1.70;;;;;;;;;;4969211;28;20680;-71
2024/01/05 06:18:50;;;;;;;1.67;1.17;;;;;;;;;;4964329;28;20515;-72
2024/01/05 06:21:16;;;;;;;3.83;1.60;;;;;;;;;;4973531;28;20826;-72
2024/01/05 06:23:42;;;;;;;4.17;2.43;;;;;;;;;;4973122;28;20965;-72
2024/01/05 06:26:08;;;;;;;2.07;1.50;;;;;;;;;;4972723;28;20444;-72
2024/01/05 06:28:34;;;;;;;6.70;1.83;;;;;;;;;;4973432;28;20475;-70
2024/01/05 06:31:00;;;;;;;5.83;2.10;;;;;;;;;;4973299;28;20423;-72
2024/01/05 06:33:26;;;;;;;3.67;1.63;;;;;;;;;;4973263;28;20427;-72
2024/01/05 06:35:52;;;;;;;6.43;1.60;;;;;;;;;;4973311;28;20467;-72
2024/01/05 06:38:18;;;;;;;3.03;1.37;;;;;;;;;;4973085;28;20463;-72
2024/01/05 06:40:45;;;;;;;3.17;1.20;;;;;;;;;;4972989;28;20427;-72
2024/01/05 06:43:10;;;;;;;7.13;1.40;;;;;;;;;;4973011;28;20412;-72
2024/01/05 06:45:37;;;;;;;3.67;2.20;;;;;;;;;;4973201;28;20582;-72
2024/01/05 06:48:03;;;;;;;5.10;2.50;;;;;;;;;;4973184;28;20416;-72
2024/01/05 06:50:29;;;;;;;7.10;3.27;;;;;;;;;;4972873;28;20898;-72
2024/01/05 06:52:55;;;;;;;5.47;2.73;;;;;;;;;;4973177;28;20455;-72
2024/01/05 06:55:21;;;;;;;9.53;3.83;;;;;;;;;;4972345;28;20471;-72
2024/01/05 06:57:48;;;;;;;8.17;2.87;;;;;;;;;;4973367;28;20412;-71
2024/01/05 07:00:14;;;;;;;8.10;4.10;;;;;;;;;;4972773;28;20903;-72
2024/01/05 07:02:43;;;;;;;10.70;3.20;;;;;;;;;;4973682;28;20456;-72
2024/01/05 07:05:09;;;;;;;8.70;3.80;;;;;;;;;;4973129;28;20514;-71
2024/01/05 07:07:35;;;;;;;7.43;4.23;;;;;;;;;;4972635;28;20412;-72
2024/01/05 07:10:01;;;;;;;9.10;3.80;;;;;;;;;;4971104;28;20423;-71
2024/01/05 07:12:30;;;;;;;11.87;4.50;;;;;;;;;;4957805;28;20419;-71
2024/01/05 07:14:56;;;;;;;11.33;3.90;;;;;;;;;;4972753;28;20514;-71
2024/01/05 07:17:22;;;;;;;12.70;4.17;;;;;;;;;;4988368;28;20424;-71
2024/01/05 07:19:48;;;;;;;6.27;3.17;;;;;;;;;;4973171;28;20479;-72
2024/01/05 07:22:14;;;;;;;11.07;3.90;;;;;;;;;;4973049;28;20422;-72
2024/01/05 07:24:40;;;;;;;7.20;3.97;;;;;;;;;;4972966;28;20439;-71
2024/01/05 07:27:06;;;;;;;7.63;3.20;;;;;;;;;;4973009;28;20412;-71
2024/01/05 07:29:32;;;;;;;9.43;3.47;;;;;;;;;;4972932;28;20447;-71
2024/01/05 07:31:58;;;;;;;6.77;3.03;;;;;;;;;;4973015;28;20458;-71
2024/01/05 07:34:24;;;;;;;5.07;3.00;;;;;;;;;;4972644;28;20460;-72
2024/01/05 07:36:50;;;;;;;5.83;3.23;;;;;;;;;;4973211;28;20466;-72
2024/01/05 07:39:16;;;;;;;4.63;2.77;;;;;;;;;;4972931;28;20446;-71
2024/01/05 07:41:42;;;;;;;11.10;3.67;;;;;;;;;;4972073;28;20470;-71
2024/01/05 07:44:08;;;;;;;4.73;3.00;;;;;;;;;;4972514;28;20794;-70
2024/01/05 07:46:40;;;;;;;11.93;3.60;;;;;;;;;;4972897;28;20413;-71
2024/01/05 07:49:06;;;;;;;10.43;3.10;;;;;;;;;;4972589;28;20424;-71
2024/01/05 07:51:32;;;;;;;7.83;2.80;;;;;;;;;;4972537;28;20422;-74
2024/01/05 07:53:58;;;;;;;10.83;4.00;;;;;;;;;;4972349;28;20424;-73
2024/01/05 07:56:24;;;;;;;7.23;4.37;;;;;;;;;;4976353;28;20938;-72
2024/01/05 07:58:50;;;;;;;22.83;5.23;;;;;;;;;;4974563;28;20448;-72
2024/01/05 08:01:20;;;;;;;7.50;5.40;;;;;;;;;;4974090;28;20419;-72
2024/01/05 08:03:47;;;;;;;11.30;4.50;;;;;;;;;;4973804;28;20419;-73
2024/01/05 08:06:16;;;;;;;13.13;5.17;;;;;;;;;;4988391;28;20431;-73
2024/01/05 08:08:46;;;;;;;16.93;5.20;;;;;;;;;;4972584;28;20938;-71
2024/01/05 08:11:13;;;;;;;14.27;5.50;;;;;;;;;;4972601;28;20428;-74
2024/01/05 08:13:40;;;;;;;9.13;4.73;;;;;;;;;;4970664;28;20423;-72
2024/01/05 08:16:06;;;;;;;15.50;5.27;;;;;;;;;;4967185;28;20479;-72
2024/01/05 08:18:32;;;;;;;21.73;5.47;;;;;;;;;;4972371;28;20911;-70
2024/01/05 08:20:58;;;;;;;10.33;6.00;;;;;;;;;;4975306;28;20498;-71
2024/01/05 08:23:24;;;;;;;17.50;5.50;;;;;;;;;;4975775;28;20429;-72
2024/01/05 08:25:50;;;;;;;11.20;5.63;;;;;;;;;;4974610;28;20444;-74
2024/01/05 08:28:16;;;;;;;13.30;5.50;;;;;;;;;;4975635;28;20423;-72
2024/01/05 08:30:42;;;;;;;21.10;5.67;;;;;;;;;;4975697;28;20514;-73
2024/01/05 08:33:08;;;;;;;13.30;5.73;;;;;;;;;;4975565;28;20431;-71
2024/01/05 08:35:35;;;;;;;15.10;5.97;;;;;;;;;;4975483;28;20459;-73
2024/01/05 08:38:02;;;;;;;10.90;4.67;;;;;;;;;;4975198;28;20419;-73
2024/01/05 08:40:29;;;;;;;10.07;5.40;;;;;;;;;;4975446;28;20443;-73
2024/01/05 08:42:55;;;;;;;13.30;5.73;;;;;;;;;;4976033;28;20891;-74
2024/01/05 08:45:21;;;;;;;21.40;6.10;;;;;;;;;;4975196;28;20454;-73
2024/01/05 08:47:47;;;;;;;12.80;5.67;;;;;;;;;;4975219;28;20970;-73
2024/01/05 08:50:15;;;;;;;19.17;5.30;;;;;;;;;;4975618;28;20516;-73
2024/01/05 08:52:41;;;;;;;10.83;5.30;;;;;;;;;;4975676;28;20470;-72
2024/01/05 08:55:07;;;;;;;14.50;5.27;;;;;;;;;;4974879;28;20439;-73
2024/01/05 08:57:33;;;;;;;14.53;4.93;;;;;;;;;;4975686;28;20416;-72
2024/01/05 08:59:59;;;;;;;19.27;5.50;;;;;;;;;;4975151;28;20412;-73
2024/01/05 09:02:26;;;;;;;13.53;4.27;;;;;;;;;;4975226;28;20908;-71
2024/01/05 09:04:52;;;;;;;9.67;5.27;;;;;;;;;;4974895;28;20431;-71
2024/01/05 09:07:19;;;;;;;15.30;5.37;;;;;;;;;;4973311;28;20439;-74
2024/01/05 09:09:45;;;;;;;20.17;6.87;;;;;;;;;;4973869;28;20427;-74
2024/01/05 09:12:11;;;;;;;15.13;6.70;;;;;;;;;;4973163;28;20448;-74
2024/01/05 09:14:37;;;;;;;16.57;5.30;;;;;;;;;;4974026;28;20459;-72
2024/01/05 09:17:04;;;;;;;18.20;6.40;;;;;;;;;;4973658;28;20455;-73
2024/01/05 09:19:30;;;;;;;28.00;6.80;;;;;;;;;;4977706;28;20420;-74
2024/01/05 09:21:56;;;;;;;23.83;6.53;;;;;;;;;;4972176;28;20424;-73
2024/01/05 09:24:22;;;;;;;18.43;7.87;;;;;;;;;;4973971;28;20795;-75
2024/01/05 09:26:48;;;;;;;19.50;6.70;;;;;;;;;;4975648;28;20463;-74
2024/01/05 09:29:15;;;;;;;10.40;5.97;;;;;;;;;;4974385;28;20416;-74
2024/01/05 09:31:45;;;;;;;17.03;6.10;;;;;;;;;;4974770;28;20899;-72
2024/01/05 09:34:11;;;;;;;18.10;6.87;;;;;;;;;;4973004;28;20863;-72
2024/01/05 09:36:43;;;;;;;16.30;6.70;;;;;;;;;;4974249;28;20463;-72
2024/01/05 09:39:11;;;;;;;13.93;5.53;;;;;;;;;;4974161;28;20420;-72
2024/01/05 09:41:37;;;;;;;13.77;5.60;;;;;;;;;;4970847;28;20516;-72
2024/01/05 09:44:04;;;;;;;10.97;5.37;;;;;;;;;;4968330;28;20499;-73
2024/01/05 09:46:30;;;;;;;13.23;5.77;;;;;;;;;;4968848;28;20429;-73
2024/01/05 09:48:58;;;;;;;16.73;6.43;;;;;;;;;;4966645;28;20447;-72
2024/01/05 09:51:25;;;;;;;14.40;6.20;;;;;;;;;;4960804;28;20425;-73
2024/01/05 09:53:51;;;;;;;23.77;6.20;;;;;;;;;;4965695;28;20453;-71
2024/01/05 09:56:17;;;;;;;11.10;6.50;;;;;;;;;;4972553;28;20836;-71
2024/01/05 09:58:45;;;;;;;17.07;6.63;;;;;;;;;;4962649;28;20467;-71
2024/01/05 10:01:15;;;;;;;11.60;6.03;;;;;;;;;;4962042;28;20421;-72
2024/01/05 10:03:42;;;;;;;11.03;5.60;;;;;;;;;;4973245;28;20446;-73
2024/01/05 10:06:08;;;;;;;13.83;6.13;;;;;;;;;;4960563;28;20437;-72
2024/01/05 10:08:34;;;;;;;19.43;6.77;;;;;;;;;;4968471;28;20426;-72
2024/01/05 10:11:01;;;;;;;11.10;5.17;;;;;;;;;;4959214;28;20519;-72
2024/01/05 10:13:27;;;;;;;16.37;5.43;;;;;;;;;;4969103;28;20994;-72
2024/01/05 10:15:56;;;;;;;15.57;7.47;;;;;;;;;;4988459;28;20495;-71
2024/01/05 10:18:22;;;;;;;13.57;5.90;;;;;;;;;;4962458;28;20427;-72
2024/01/05 10:20:49;;;;;;;17.47;6.10;;;;;;;;;;4969851;28;20508;-72
2024/01/05 10:23:16;;;;;;;24.73;5.87;;;;;;;;;;4966211;28;20919;-73
2024/01/05 10:25:42;;;;;;;8.27;4.90;;;;;;;;;;4971223;28;20524;-72
2024/01/05 10:28:23;;;;;;;11.97;6.93;;;;;;;;;;4963742;28;20503;-74
2024/01/05 10:30:49;;;;;;;14.30;6.07;;;;;;;;;;4965686;28;20416;-72
2024/01/05 10:33:18;;;;;;;16.03;5.90;;;;;;;;;;4972945;28;20479;-70
2024/01/05 10:35:44;;;;;;;14.13;5.30;;;;;;;;;;4968363;28;20463;-72
2024/01/05 10:38:11;;;;;;;17.47;6.40;;;;;;;;;;4970826;28;20466;-72
2024/01/05 10:40:37;;;;;;;13.03;5.53;;;;;;;;;;4970153;28;20519;-72
2024/01/05 10:43:10;;;;;;;14.87;5.83;;;;;;;;;;4970786;28;20903;-73
2024/01/05 10:45:40;;;;;;;14.40;5.87;;;;;;;;;;4971187;28;20534;-71
2024/01/05 10:48:09;;;;;;;16.47;5.87;;;;;;;;;;4972340;28;20771;-71
2024/01/05 10:50:41;;;;;;;17.63;5.93;;;;;;;;;;4968412;28;20421;-73
2024/01/05 10:53:10;;;;;;;17.57;6.20;;;;;;;;;;4968981;28;20450;-73
2024/01/05 10:55:37;;;;;;;19.80;6.30;;;;;;;;;;4967916;28;20471;-72
2024/01/05 10:58:06;;;;;;;18.50;6.43;;;;;;;;;;4971101;28;20416;-73
2024/01/05 11:00:32;;;;;;;19.13;6.10;;;;;;;;;;4972349;28;20423;-72
2024/01/05 11:03:06;;;;;;;15.30;5.97;;;;;;;;;;4967037;28;20765;-73
2024/01/05 11:05:32;;;;;;;16.37;6.93;;;;;;;;;;4966604;28;20442;-73
2024/01/05 11:08:00;;;;;;;11.47;5.80;;;;;;;;;;4966279;28;20524;-74
2024/01/05 11:10:41;;;;;;;12.30;6.03;;;;;;;;;;4970161;28;20475;-74
2024/01/05 11:13:07;;;;;;;17.40;6.33;;;;;;;;;;4969497;28;20419;-74
2024/01/05 11:15:33;;;;;;;17.13;6.17;;;;;;;;;;4972038;28;20479;-74
2024/01/05 11:18:08;;;;;;;12.77;6.03;;;;;;;;;;4967154;28;20915;-73
2024/01/05 11:20:43;;;;;;;15.03;5.47;;;;;;;;;;4970818;28;20453;-73
2024/01/05 11:23:09;;;;;;;19.80;8.97;;;;;;;;;;4969740;28;20728;-73
2024/01/05 11:25:35;;;;;;;21.37;6.53;;;;;;;;;;4968438;28;20805;-72
2024/01/05 11:28:02;;;;;;;18.83;6.20;;;;;;;;;;4971785;28;20827;-72
2024/01/05 11:30:45;;;;;;;14.50;6.10;;;;;;;;;;4961097;28;20425;-73
2024/01/05 11:33:31;;;;;;;18.53;6.33;;;;;;;;;;4953436;28;20445;-74
2024/01/05 11:35:56;;;;;;;23.70;7.13;;;;;;;;;;4961266;28;20493;-74
2024/01/05 11:38:27;;;;;;;13.70;6.43;;;;;;;;;;4972879;28;20498;-73
2024/01/05 11:40:53;;;;;;;23.40;7.60;;;;;;;;;;4972635;28;20982;-74
2024/01/05 11:43:33;;;;;;;12.53;6.43;;;;;;;;;;4972731;28;20412;-73
2024/01/05 11:45:59;;;;;;;11.87;5.97;;;;;;;;;;4972719;28;20471;-72
2024/01/05 11:48:34;;;;;;;16.03;6.20;;;;;;;;;;4972814;28;20429;-72
2024/01/05 11:51:00;;;;;;;15.17;6.33;;;;;;;;;;4969789;28;20404;-76
2024/01/05 11:53:29;;;;;;;15.83;5.63;;;;;;;;;;4969634;28;20494;-74
2024/01/05 11:55:56;;;;;;;12.47;5.67;;;;;;;;;;4970451;28;20853;-73
2024/01/05 11:58:27;;;;;;;12.03;6.17;;;;;;;;;;4975998;28;20427;-75
2024/01/05 12:00:55;;;;;;;15.70;5.70;;;;;;;;;;4975485;28;20412;-73
2024/01/05 12:03:23;;;;;;;12.80;6.63;;;;;;;;;;4975978;28;20447;-73
2024/01/05 12:05:51;;;;;;;13.07;5.67;;;;;;;;;;4976447;28;20436;-73
2024/01/05 12:08:18;;;;;;;13.90;5.80;;;;;;;;;;4976328;28;20531;-73
2024/01/05 12:10:44;;;;;;;11.20;6.13;;;;;;;;;;4982475;28;20482;-73
2024/01/05 12:13:09;;;;;;;17.33;5.97;;;;;;;;;;4977380;28;20958;-73
2024/01/05 12:15:36;;;;;;;15.07;6.47;;;;;;;;;;4978262;28;20487;-73
2024/01/05 12:18:10;;;;;;;14.67;6.77;;;;;;;;;;4971782;28;20515;-75
2024/01/05 12:20:36;;;;;;;17.47;5.90;;;;;;;;;;4970931;28;20462;-73
2024/01/05 12:23:03;;;;;;;20.83;8.47;;;;;;;;;;4987291;28;20424;-73
2024/01/05 12:25:29;;;;;;;19.57;6.73;;;;;;;;;;4986055;28;20505;-73
2024/01/05 12:27:55;;;;;;;18.37;6.43;;;;;;;;;;4982377;28;20462;-73
2024/01/05 12:30:22;;;;;;;14.13;5.53;;;;;;;;;;4975415;28;20799;-73
2024/01/05 12:32:49;;;;;;;15.27;5.93;;;;;;;;;;4975463;28;20456;-72
2024/01/05 12:35:15;;;;;;;8.57;5.70;;;;;;;;;;4972065;28;20811;-74
2024/01/05 12:37:54;;;;;;;15.80;6.90;;;;;;;;;;4974717;28;20415;-74
2024/01/05 12:40:24;;;;;;;17.03;5.90;;;;;;;;;;4975439;28;20923;-74
2024/01/05 12:42:51;;;;;;;12.20;6.00;;;;;;;;;;4990910;28;21031;-75
2024/01/05 12:45:18;;;;;;;22.53;6.57;;;;;;;;;;4976190;28;20438;-74
2024/01/05 12:47:44;;;;;;;13.50;5.77;;;;;;;;;;4975774;28;20493;-74
2024/01/05 12:50:23;;;;;;;16.30;6.27;;;;;;;;;;4975651;28;20416;-74
2024/01/05 12:52:49;;;;;;;14.93;6.57;;;;;;;;;;4975238;28;20412;-74
2024/01/05 12:55:28;;;;;;;14.53;6.50;;;;;;;;;;4967565;28;20472;-73
2024/01/05 12:57:54;;;;;;;17.53;6.60;;;;;;;;;;4973376;28;20919;-73
2024/01/05 13:00:22;;;;;;;14.57;6.80;;;;;;;;;;4975376;28;20911;-74
2024/01/05 13:02:48;;;;;;;10.70;6.47;;;;;;;;;;4974420;28;20451;-74
2024/01/05 13:05:26;;;;;;;10.37;5.30;;;;;;;;;;4974328;28;20431;-75
2024/01/05 13:07:53;;;;;;;17.07;5.30;;;;;;;;;;4975227;28;20412;-74
2024/01/05 13:10:19;;;;;;;20.67;6.23;;;;;;;;;;4975539;28;20412;-73
2024/01/05 13:12:46;;;;;;;9.00;6.00;;;;;;;;;;4975428;28;20404;-73
2024/01/05 13:15:12;;;;;;;13.33;6.10;;;;;;;;;;4994201;28;20949;-73
2024/01/05 13:17:42;;;;;;;12.43;5.17;;;;;;;;;;4981620;28;20899;-73
2024/01/05 13:20:09;;;;;;;11.33;5.40;;;;;;;;;;4972964;28;20424;-73
2024/01/05 13:22:35;;;;;;;15.00;5.53;;;;;;;;;;4974834;28;20907;-73
2024/01/05 13:25:01;;;;;;;12.50;5.77;;;;;;;;;;4975786;28;20471;-73
2024/01/05 13:27:26;;;;;;;16.40;5.43;;;;;;;;;;4976605;28;20420;-74
2024/01/05 13:29:53;;;;;;;13.10;4.90;;;;;;;;;;4975456;28;20424;-72
2024/01/05 13:32:19;;;;;;;10.57;5.93;;;;;;;;;;4975806;28;20420;-73
2024/01/05 13:34:45;;;;;;;16.43;5.90;;;;;;;;;;4975271;28;20439;-72
2024/01/05 13:37:11;;;;;;;18.60;6.90;;;;;;;;;;4975082;28;20832;-72
2024/01/05 13:39:39;;;;;;;18.60;5.83;;;;;;;;;;4974932;28;20989;-72
2024/01/05 13:42:05;;;;;;;16.03;6.10;;;;;;;;;;4974837;28;20415;-73
2024/01/05 13:44:31;;;;;;;17.87;5.63;;;;;;;;;;4974306;28;20507;-72
2024/01/05 13:46:57;;;;;;;14.50;5.63;;;;;;;;;;4974286;28;20900;-72
2024/01/05 13:49:23;;;;;;;20.03;6.97;;;;;;;;;;4974726;28;20997;-73
2024/01/05 13:51:49;;;;;;;21.23;6.70;;;;;;;;;;4974709;28;20720;-73
2024/01/05 13:54:14;;;;;;;12.70;5.50;;;;;;;;;;4974054;28;20468;-73
2024/01/05 13:56:40;;;;;;;19.53;6.80;;;;;;;;;;4989039;28;20463;-73
2024/01/05 13:59:06;;;;;;;13.23;6.23;;;;;;;;;;4974256;28;20820;-73
2024/01/05 14:01:32;;;;;;;16.30;6.67;;;;;;;;;;4974630;28;20962;-72
2024/01/05 14:03:58;;;;;;;13.73;6.70;;;;;;;;;;4974155;28;20937;-73
2024/01/05 14:06:24;;;;;;;15.63;6.20;;;;;;;;;;4974166;28;20407;-73
2024/01/05 14:08:50;;;;;;;16.37;7.63;;;;;;;;;;4974128;28;20507;-73
2024/01/05 14:11:17;;;;;;;15.80;6.87;;;;;;;;;;4974024;28;20443;-72
2024/01/05 14:13:43;;;;;;;18.93;7.27;;;;;;;;;;4988525;28;20553;-71
2024/01/05 14:16:09;;;;;;;13.43;6.10;;;;;;;;;;4987847;28;20476;-73
2024/01/05 14:18:37;;;;;;;18.33;6.80;;;;;;;;;;4973709;28;20470;-73
2024/01/05 14:21:03;;;;;;;13.93;6.30;;;;;;;;;;4974107;28;20408;-73
2024/01/05 14:23:29;;;;;;;14.40;5.50;;;;;;;;;;4973675;28;20404;-72
2024/01/05 14:25:55;;;;;;;11.93;5.97;;;;;;;;;;4973554;28;20437;-73
2024/01/05 14:28:21;;;;;;;11.00;5.30;;;;;;;;;;4973696;28;20430;-73
2024/01/05 14:30:47;;;;;;;14.33;7.10;;;;;;;;;;4988561;28;20927;-73
2024/01/05 14:33:13;;;;;;;20.13;6.07;;;;;;;;;;4973418;28;20423;-73
2024/01/05 14:35:41;;;;;;;18.17;6.80;;;;;;;;;;4973521;28;20526;-73
2024/01/05 14:38:07;;;;;;;10.50;5.60;;;;;;;;;;4973442;28;20498;-72
2024/01/05 14:40:33;;;;;;;16.63;6.57;;;;;;;;;;4973837;28;20499;-73
2024/01/05 14:42:58;;;;;;;14.60;6.63;;;;;;;;;;4988215;28;20432;-73
2024/01/05 14:45:24;;;;;;;13.53;5.77;;;;;;;;;;4973455;28;20440;-72
2024/01/05 14:47:50;;;;;;;17.57;5.77;;;;;;;;;;4973685;28;20412;-72
2024/01/05 14:50:16;;;;;;;21.77;6.20;;;;;;;;;;4973308;28;20415;-72
2024/01/05 14:52:42;;;;;;;18.37;6.47;;;;;;;;;;4988249;28;20419;-72
2024/01/05 14:55:09;;;;;;;16.00;6.53;;;;;;;;;;4973238;28;20436;-72
2024/01/05 14:57:35;;;;;;;11.50;6.60;;;;;;;;;;4973244;28;20456;-72
2024/01/05 15:00:01;;;;;;;13.97;6.43;;;;;;;;;;4973221;28;20450;-72
2024/01/05 15:02:27;;;;;;;17.40;6.50;;;;;;;;;;4973300;28;20416;-72
2024/01/05 15:04:54;;;;;;;11.57;6.73;;;;;;;;;;4973371;28;20526;-72
2024/01/05 15:07:20;;;;;;;11.07;6.83;;;;;;;;;;4973657;28;20791;-71
2024/01/05 15:09:46;;;;;;;16.43;6.97;;;;;;;;;;4973256;28;20443;-72
2024/01/05 15:12:13;;;;;;;15.60;6.17;;;;;;;;;;4973436;28;20471;-72
2024/01/05 15:14:39;;;;;;;18.53;8.40;;;;;;;;;;4973079;28;20455;-72
2024/01/05 15:17:04;;;;;;;11.80;5.70;;;;;;;;;;4972985;28;20876;-72
2024/01/05 15:19:30;;;;;;;11.27;6.07;;;;;;;;;;4973166;28;20899;-72
2024/01/05 15:21:57;;;;;;;34.60;6.90;;;;;;;;;;4973116;28;20954;-72
2024/01/05 15:24:23;;;;;;;15.50;6.67;;;;;;;;;;4972758;28;20424;-72
2024/01/05 15:26:49;;;;;;;11.93;6.20;;;;;;;;;;4973227;28;20907;-72
2024/01/05 15:29:15;;;;;;;14.13;6.67;;;;;;;;;;4991153;28;21003;-72
2024/01/05 15:31:41;;;;;;;14.07;7.50;;;;;;;;;;4977036;28;20942;-72
2024/01/05 15:34:06;;;;;;;15.60;7.27;;;;;;;;;;4976463;28;20422;-72
2024/01/05 15:36:33;;;;;;;17.70;7.30;;;;;;;;;;4991726;28;20978;-74
2024/01/05 15:38:59;;;;;;;10.40;6.63;;;;;;;;;;4975841;28;20419;-75
2024/01/05 15:41:25;;;;;;;22.03;7.33;;;;;;;;;;4976797;28;20416;-73
2024/01/05 15:43:55;;;;;;;12.80;7.00;;;;;;;;;;4976289;28;20455;-72
2024/01/05 15:46:21;;;;;;;21.10;7.57;;;;;;;;;;4975143;28;20416;-75
2024/01/05 15:48:47;;;;;;;16.47;6.50;;;;;;;;;;4976552;28;20454;-74
2024/01/05 15:51:19;;;;;;;19.10;6.27;;;;;;;;;;4976495;28;20443;-74
2024/01/05 15:53:46;;;;;;;10.83;7.00;;;;;;;;;;4976275;28;20407;-74
2024/01/05 15:56:12;;;;;;;18.00;6.53;;;;;;;;;;4976557;28;20463;-74
2024/01/05 15:58:38;;;;;;;13.63;6.40;;;;;;;;;;4977382;28;20400;-73
2024/01/05 16:01:04;;;;;;;11.27;6.00;;;;;;;;;;4975858;28;20912;-75
2024/01/05 16:03:30;;;;;;;14.20;6.20;;;;;;;;;;4975707;28;20428;-76
2024/01/05 16:05:56;;;;;;;16.80;7.10;;;;;;;;;;4970437;28;20441;-74
2024/01/05 16:08:22;;;;;;;12.70;7.43;;;;;;;;;;4965048;28;20421;-75
2024/01/05 16:10:48;;;;;;;11.63;6.40;;;;;;;;;;4973635;28;20419;-76
2024/01/05 16:13:14;;;;;;;14.30;6.23;;;;;;;;;;4975746;28;20884;-76
2024/01/05 16:15:40;;;;;;;26.27;7.60;;;;;;;;;;4975923;28;20482;-76
2024/01/05 16:18:06;;;;;;;12.10;6.03;;;;;;;;;;4976405;28;20463;-75
2024/01/05 16:20:32;;;;;;;10.70;6.20;;;;;;;;;;4976005;28;20395;-74
2024/01/05 16:22:58;;;;;;;16.60;6.50;;;;;;;;;;4976341;28;20452;-75
2024/01/05 16:25:24;;;;;;;15.50;7.33;;;;;;;;;;4975836;28;20436;-74
2024/01/05 16:27:50;;;;;;;21.03;6.83;;;;;;;;;;4974746;28;20416;-75
2024/01/05 16:30:16;;;;;;;12.73;6.63;;;;;;;;;;4974900;28;20420;-73
2024/01/05 16:32:42;;;;;;;20.10;8.17;;;;;;;;;;4977599;28;20436;-74
2024/01/05 16:35:08;;;;;;;16.93;7.93;;;;;;;;;;4958284;28;20435;-74
2024/01/05 16:37:34;;;;;;;10.23;6.73;;;;;;;;;;4958009;28;20482;-73
2024/01/05 16:40:00;;;;;;;14.70;7.23;;;;;;;;;;4956695;28;20409;-75
2024/01/05 16:42:26;;;;;;;13.73;7.10;;;;;;;;;;4964619;28;20416;-73
2024/01/05 16:44:52;;;;;;;24.57;9.33;;;;;;;;;;4977460;28;20443;-75
2024/01/05 16:47:18;;;;;;;13.73;7.13;;;;;;;;;;4978698;28;20563;-74
2024/01/05 16:49:44;;;;;;;19.30;8.10;;;;;;;;;;4975599;28;20452;-73
2024/01/05 16:52:10;;;;;;;16.87;7.47;;;;;;;;;;4976043;28;20494;-74
2024/01/05 16:54:36;;;;;;;14.30;7.27;;;;;;;;;;4977212;28;20807;-74
2024/01/05 16:57:02;;;;;;;18.27;7.87;;;;;;;;;;4964244;28;20468;-75
2024/01/05 16:59:28;;;;;;;19.63;8.63;;;;;;;;;;4956808;28;20841;-74
2024/01/05 17:01:54;;;;;;;24.00;8.97;;;;;;;;;;4956773;28;20480;-75
2024/01/05 17:04:22;;;;;;;20.17;9.53;;;;;;;;;;4956431;28;21118;-75
2024/01/05 17:06:51;;;;;;;17.27;8.57;;;;;;;;;;4957244;28;20424;-73
2024/01/05 17:09:19;;;;;;;21.37;9.60;;;;;;;;;;4969408;28;20853;-74
2024/01/05 17:11:45;;;;;;;24.87;9.40;;;;;;;;;;4975513;28;20478;-75
2024/01/05 17:14:11;;;;;;;19.67;8.33;;;;;;;;;;4974953;28;20460;-75
2024/01/05 17:16:37;;;;;;;23.60;8.50;;;;;;;;;;4975637;28;20467;-76
2024/01/05 17:19:03;;;;;;;15.83;8.27;;;;;;;;;;4975420;28;20412;-75
2024/01/05 17:21:29;;;;;;;26.23;12.20;;;;;;;;;;4975752;28;20415;-74
2024/01/05 17:23:56;;;;;;;24.00;10.23;;;;;;;;;;4975092;28;20523;-74
2024/01/05 17:26:23;;;;;;;18.80;9.27;;;;;;;;;;4975080;28;20411;-74
2024/01/05 17:28:49;;;;;;;17.37;8.27;;;;;;;;;;4989908;28;20506;-73
2024/01/05 17:31:15;;;;;;;23.43;8.60;;;;;;;;;;4975289;28;20807;-74
2024/01/05 17:33:41;;;;;;;24.70;9.03;;;;;;;;;;4975087;28;20432;-74
2024/01/05 17:36:07;;;;;;;15.23;7.30;;;;;;;;;;4974738;28;20905;-74
2024/01/05 17:38:33;;;;;;;21.47;9.10;;;;;;;;;;4974921;28;20787;-74
2024/01/05 17:40:59;;;;;;;34.80;9.77;;;;;;;;;;4974817;28;20419;-75
2024/01/05 17:43:25;;;;;;;17.70;9.07;;;;;;;;;;4975058;28;20435;-73
2024/01/05 17:45:51;;;;;;;23.20;9.47;;;;;;;;;;4977070;28;20983;-74
2024/01/05 17:48:18;;;;;;;18.27;9.03;;;;;;;;;;4955727;28;20927;-73
2024/01/05 17:50:44;;;;;;;20.80;9.00;;;;;;;;;;4955315;28;20424;-74
2024/01/05 17:53:10;;;;;;;18.53;9.40;;;;;;;;;;4955298;29;20413;-74
2024/01/05 17:55:36;;;;;;;23.83;9.17;;;;;;;;;;4955120;28;20490;-73
2024/01/05 17:58:02;;;;;;;19.90;10.10;;;;;;;;;;4955152;29;20413;-74
2024/01/05 18:00:28;;;;;;;29.67;10.83;;;;;;;;;;4955115;29;20487;-73
2024/01/05 18:02:54;;;;;;;33.20;11.70;;;;;;;;;;4964442;28;20435;-74
2024/01/05 18:05:20;;;;;;;27.33;11.67;;;;;;;;;;4973609;28;20432;-73
2024/01/05 18:07:47;;;;;;;24.13;10.90;;;;;;;;;;4971120;28;20423;-74
2024/01/05 18:10:13;;;;;;;22.00;12.57;;;;;;;;;;4973783;28;20434;-72
2024/01/05 18:12:39;;;;;;;27.97;14.57;;;;;;;;;;4973200;28;20412;-73
2024/01/05 18:15:08;;;;;;;27.17;14.43;;;;;;;;;;4973498;28;20844;-73
2024/01/05 18:17:34;;;;;;;27.77;13.27;;;;;;;;;;4973015;28;20478;-73
2024/01/05 18:20:00;;;;;;;26.73;14.20;;;;;;;;;;4973888;28;20407;-73
2024/01/05 18:22:26;;;;;;;32.53;14.50;;;;;;;;;;4974229;28;20466;-73
2024/01/05 18:24:52;;;;;;;28.50;14.53;;;;;;;;;;4973737;28;20436;-73
2024/01/05 18:27:18;;;;;;;33.47;15.13;;;;;;;;;;4973850;28;20459;-73
2024/01/05 18:29:44;;;;;;;36.07;14.40;;;;;;;;;;4972526;28;20420;-73
2024/01/05 18:32:10;;;;;;;29.33;12.97;;;;;;;;;;4972642;28;20428;-73
2024/01/05 18:34:36;;;;;;;28.23;14.07;;;;;;;;;;4959291;28;20535;-73
2024/01/05 18:37:02;;;;;;;28.33;13.87;;;;;;;;;;4955198;28;20464;-73
2024/01/05 18:39:28;;;;;;;29.20;13.47;;;;;;;;;;4973648;28;20423;-73
2024/01/05 18:41:54;;;;;;;28.00;13.10;;;;;;;;;;4973545;28;20408;-73
2024/01/05 18:44:20;;;;;;;29.77;12.00;;;;;;;;;;4973182;28;20432;-73
2024/01/05 18:46:46;;;;;;;34.37;12.63;;;;;;;;;;4973398;28;20451;-73
2024/01/05 18:49:12;;;;;;;24.57;12.60;;;;;;;;;;4973375;28;20500;-73
2024/01/05 18:51:38;;;;;;;24.90;13.67;;;;;;;;;;4973217;28;20416;-73
2024/01/05 18:54:05;;;;;;;28.47;12.87;;;;;;;;;;4973052;28;20419;-73
2024/01/05 18:56:32;;;;;;;23.67;13.90;;;;;;;;;;4973262;28;20494;-73
2024/01/05 18:58:58;;;;;;;23.30;11.50;;;;;;;;;;4972946;28;20903;-73
2024/01/05 19:01:24;;;;;;;19.70;12.13;;;;;;;;;;4973155;28;20491;-73
2024/01/05 19:03:51;;;;;;;22.00;11.50;;;;;;;;;;4972784;28;20427;-73
2024/01/05 19:06:17;;;;;;;27.53;12.90;;;;;;;;;;4973251;28;20899;-73
2024/01/05 19:08:43;;;;;;;31.60;12.97;;;;;;;;;;4972299;28;20896;-72
2024/01/05 19:11:09;;;;;;;29.27;13.10;;;;;;;;;;4972752;28;20922;-72
2024/01/05 19:13:35;;;;;;;21.80;12.10;;;;;;;;;;4972657;28;20424;-73
2024/01/05 19:16:02;;;;;;;21.93;12.37;;;;;;;;;;4972347;28;20479;-73
2024/01/05 19:18:29;;;;;;;27.50;11.40;;;;;;;;;;4973052;28;20408;-73
2024/01/05 19:20:55;;;;;;;26.47;11.40;;;;;;;;;;4972931;28;20503;-72
2024/01/05 19:23:21;;;;;;;31.97;13.23;;;;;;;;;;4972888;28;20443;-73
2024/01/05 19:25:47;;;;;;;22.57;11.30;;;;;;;;;;4972861;28;20465;-72
2024/01/05 19:28:13;;;;;;;23.87;10.47;;;;;;;;;;4973112;28;20412;-73
2024/01/05 19:30:39;;;;;;;31.10;10.77;;;;;;;;;;4969788;28;20990;-72
2024/01/05 19:33:05;;;;;;;27.37;11.27;;;;;;;;;;4969029;28;20419;-72
2024/01/05 19:35:30;;;;;;;19.90;10.10;;;;;;;;;;4973307;28;20440;-73
2024/01/05 19:37:59;;;;;;;19.47;10.43;;;;;;;;;;4970646;28;20492;-72
2024/01/05 19:40:25;;;;;;;25.03;11.03;;;;;;;;;;4966564;28;20889;-72
2024/01/05 19:42:51;;;;;;;27.00;14.00;;;;;;;;;;4972037;28;20508;-73
2024/01/05 19:45:18;;;;;;;26.40;12.17;;;;;;;;;;4972024;28;20812;-73
2024/01/05 19:47:44;;;;;;;28.83;12.23;;;;;;;;;;4972661;28;20424;-73
2024/01/05 19:50:10;;;;;;;21.87;10.83;;;;;;;;;;4978370;28;20416;-74
2024/01/05 19:52:36;;;;;;;20.03;10.70;;;;;;;;;;4972517;28;20415;-73
2024/01/05 19:55:04;;;;;;;26.30;13.03;;;;;;;;;;4973138;28;20455;-73
2024/01/05 19:57:30;;;;;;;25.73;13.10;;;;;;;;;;4953250;28;20530;-73
2024/01/05 19:59:56;;;;;;;30.20;11.17;;;;;;;;;;4953306;28;20413;-73
2024/01/05 20:02:22;;;;;;;22.03;12.60;;;;;;;;;;4955602;28;20435;-73
2024/01/05 20:04:49;;;;;;;23.23;11.90;;;;;;;;;;4964307;28;20973;-73
2024/01/05 20:07:15;;;;;;;24.73;11.40;;;;;;;;;;4969992;28;20412;-72
2024/01/05 20:09:42;;;;;;;31.57;15.07;;;;;;;;;;4971440;28;20415;-72
2024/01/05 20:12:10;;;;;;;35.77;15.57;;;;;;;;;;4972640;28;20864;-72
2024/01/05 20:14:36;;;;;;;34.60;15.57;;;;;;;;;;4972594;28;20478;-72
2024/01/05 20:17:03;;;;;;;29.80;15.80;;;;;;;;;;4976241;28;20800;-73
2024/01/05 20:19:29;;;;;;;29.23;13.83;;;;;;;;;;4976403;28;20404;-73
2024/01/05 20:21:55;;;;;;;26.30;14.70;;;;;;;;;;4975586;28;20408;-72
2024/01/05 20:24:21;;;;;;;35.63;13.90;;;;;;;;;;4979070;28;20466;-72
2024/01/05 20:26:53;;;;;;;35.07;14.17;;;;;;;;;;4981286;28;20428;-72